Time;durP1;ratioP1;P1;durP2;ratioP2;P2;SDS_P1;SDS_P2;PMS_P1;PMS_P2;Temp;Humidity;BMP_temperature;BMP_pressure;BME280_temperature;BME280_humidity;BME280_pressure;Samples;Min_cycle;Max_cycle;Signal;HPM_P1;HPM_P2
2023/05/23 00:00:41;;;;;;;9.60;8.00;;;17.60;99.90;;;;;;5033186;28;20170;-85
2023/05/23 00:03:07;;;;;;;9.00;8.10;;;17.60;99.90;;;;;;5033249;28;20636;-86
2023/05/23 00:05:33;;;;;;;8.50;7.57;;;17.60;99.90;;;;;;5033148;28;20539;-87
2023/05/23 00:08:00;;;;;;;9.70;8.27;;;17.60;99.90;;;;;;5033556;28;20624;-85
2023/05/23 00:10:26;;;;;;;10.82;8.13;;;17.60;99.90;;;;;;5033370;28;20194;-92
2023/05/23 00:12:52;;;;;;;8.95;8.05;;;17.50;99.90;;;;;;5034447;28;20265;-92
2023/05/23 00:15:18;;;;;;;10.80;7.85;;;17.50;99.90;;;;;;5033156;28;20234;-91
2023/05/23 00:17:45;;;;;;;10.85;9.20;;;17.60;99.90;;;;;;5033756;28;20213;-92
2023/05/23 00:20:12;;;;;;;10.32;9.23;;;17.60;99.90;;;;;;5035092;28;20170;-94
2023/05/23 00:22:41;;;;;;;12.40;9.82;;;17.50;99.90;;;;;;5033875;28;20230;-92
2023/05/23 00:25:08;;;;;;;13.23;10.20;;;17.60;99.90;;;;;;5034980;28;20171;-93
2023/05/23 00:27:35;;;;;;;11.40;10.30;;;17.40;99.90;;;;;;5033806;28;20500;-94
2023/05/23 00:30:02;;;;;;;11.73;10.02;;;17.40;99.90;;;;;;5033409;28;20174;-93
2023/05/23 00:32:27;;;;;;;12.70;10.80;;;17.40;99.90;;;;;;5034854;28;20566;-91
2023/05/23 00:34:54;;;;;;;12.43;10.43;;;17.40;99.90;;;;;;5034835;28;20170;-92
2023/05/23 00:37:22;;;;;;;12.38;11.23;;;17.40;99.90;;;;;;5033731;28;20210;-92
2023/05/23 00:39:48;;;;;;;15.85;11.02;;;17.40;99.90;;;;;;5033501;28;20195;-92
2023/05/23 00:42:14;;;;;;;12.25;11.02;;;17.40;99.90;;;;;;5033537;28;20605;-93
2023/05/23 00:44:40;;;;;;;13.90;10.38;;;17.40;99.90;;;;;;5034625;28;20183;-92
2023/05/23 00:47:07;;;;;;;19.95;10.23;;;17.40;99.90;;;;;;5034861;28;20621;-91
2023/05/23 00:49:34;;;;;;;11.93;9.82;;;17.40;99.90;;;;;;5034692;28;20161;-94
2023/05/23 00:52:00;;;;;;;10.50;9.13;;;17.30;99.90;;;;;;5033712;28;20185;-92
2023/05/23 00:54:30;;;;;;;10.52;8.30;;;17.30;99.90;;;;;;5034699;28;20174;-90
2023/05/23 00:56:57;;;;;;;10.93;8.23;;;17.40;99.90;;;;;;5033380;28;20826;-92
2023/05/23 00:59:25;;;;;;;9.23;8.13;;;17.40;99.90;;;;;;5033310;28;20182;-91
2023/05/23 01:01:53;;;;;;;11.45;8.45;;;17.30;99.90;;;;;;5033310;28;20605;-90
2023/05/23 01:04:19;;;;;;;9.85;8.18;;;17.30;99.90;;;;;;5034551;28;20206;-89
2023/05/23 01:06:47;;;;;;;16.10;8.40;;;17.20;99.90;;;;;;5032785;28;20179;-91
2023/05/23 01:09:15;;;;;;;10.18;8.10;;;17.20;99.90;;;;;;5033017;28;20674;-92
2023/05/23 01:12:03;;;;;;;11.02;9.43;;;17.20;99.90;;;;;;5032716;28;20175;-91
2023/05/23 01:14:39;;;;;;;12.18;9.32;;;17.10;99.90;;;;;;5037019;28;20218;-90
2023/05/23 01:17:50;;;;;;;26.02;12.00;;;17.10;99.90;;;;;;5037804;28;20301;-89
2023/05/23 01:20:21;;;;;;;15.65;11.40;;;17.10;99.90;;;;;;5037661;28;20170;-90
2023/05/23 01:22:59;;;;;;;16.23;12.98;;;17.00;99.90;;;;;;5036733;28;20531;-91
2023/05/23 01:26:02;;;;;;;18.13;14.23;;;17.00;99.90;;;;;;5036770;28;20220;-90
2023/05/23 01:28:50;;;;;;;23.42;14.93;;;17.00;99.90;;;;;;5037798;28;20174;-90
2023/05/23 01:31:18;;;;;;;18.13;15.73;;;17.00;99.90;;;;;;5036359;28;20183;-88
2023/05/23 01:33:48;;;;;;;19.83;15.45;;;16.90;99.90;;;;;;5037511;28;20166;-89
2023/05/23 01:36:14;;;;;;;17.00;15.10;;;16.90;99.90;;;;;;5037639;28;20540;-90
2023/05/23 01:38:40;;;;;;;17.30;15.50;;;16.90;99.90;;;;;;5037548;28;20182;-89
2023/05/23 01:41:06;;;;;;;19.88;15.80;;;16.90;99.90;;;;;;5036337;28;20206;-89
2023/05/23 01:43:32;;;;;;;28.75;17.05;;;16.90;99.90;;;;;;5037467;28;20225;-90
2023/05/23 01:46:00;;;;;;;21.73;17.50;;;16.90;99.90;;;;;;5037143;28;20225;-91
2023/05/23 01:48:27;;;;;;;22.23;17.38;;;16.90;99.90;;;;;;5035860;28;20547;-88
2023/05/23 01:50:55;;;;;;;20.08;16.58;;;16.90;99.90;;;;;;5035991;28;20173;-90
2023/05/23 01:53:23;;;;;;;18.80;16.80;;;16.90;99.90;;;;;;5036236;28;20182;-91
2023/05/23 01:55:50;;;;;;;19.83;17.65;;;16.90;99.90;;;;;;5036924;28;20253;-91
2023/05/23 01:58:16;;;;;;;22.45;18.20;;;16.90;99.90;;;;;;5035646;28;20182;-91
2023/05/23 02:00:42;;;;;;;22.92;17.60;;;16.90;99.90;;;;;;5035287;28;20265;-89
2023/05/23 02:03:07;;;;;;;17.98;15.85;;;16.90;99.90;;;;;;5037035;28;20213;-90
2023/05/23 02:05:33;;;;;;;27.92;17.45;;;16.90;99.90;;;;;;5037042;28;20662;-90
2023/05/23 02:08:00;;;;;;;20.95;18.00;;;16.90;99.90;;;;;;5037230;28;20194;-90
2023/05/23 02:10:26;;;;;;;23.42;17.17;;;16.90;99.90;;;;;;5036797;28;20163;-91
2023/05/23 02:12:51;;;;;;;21.73;18.08;;;16.90;99.90;;;;;;5035877;28;20181;-91
2023/05/23 02:15:17;;;;;;;20.38;18.23;;;16.80;99.90;;;;;;5043786;28;20234;-89
2023/05/23 02:17:47;;;;;;;21.20;18.42;;;16.80;99.90;;;;;;5055676;28;20213;-90
2023/05/23 02:20:13;;;;;;;20.20;18.08;;;16.80;99.90;;;;;;5055704;28;20174;-89
2023/05/23 02:22:39;;;;;;;20.08;18.10;;;16.80;99.90;;;;;;5056689;28;20215;-92
2023/05/23 02:25:05;;;;;;;21.42;18.90;;;16.80;99.90;;;;;;5054644;28;20170;-91
2023/05/23 02:27:33;;;;;;;19.55;17.45;;;16.80;99.90;;;;;;5055728;28;20174;-91
2023/05/23 02:29:59;;;;;;;21.85;19.33;;;16.80;99.90;;;;;;5056308;28;20227;-91
2023/05/23 02:32:24;;;;;;;23.40;19.52;;;16.80;99.90;;;;;;5055275;28;20209;-90
2023/05/23 02:34:51;;;;;;;26.25;19.13;;;16.90;99.90;;;;;;5055284;28;20558;-90
2023/05/23 02:37:18;;;;;;;22.45;19.70;;;16.80;99.90;;;;;;5056340;28;20205;-89
2023/05/23 02:39:44;;;;;;;31.10;22.52;;;16.90;99.90;;;;;;5055108;28;20170;-89
2023/05/23 02:42:10;;;;;;;24.85;21.33;;;16.90;99.90;;;;;;5054937;28;20181;-90
2023/05/23 02:44:35;;;;;;;27.38;22.17;;;16.80;99.90;;;;;;5051889;28;20182;-90
2023/05/23 02:47:02;;;;;;;26.55;22.65;;;16.80;99.90;;;;;;5035190;28;20182;-89
2023/05/23 02:49:28;;;;;;;27.60;22.48;;;16.80;99.90;;;;;;5034795;28;20300;-89
2023/05/23 02:51:54;;;;;;;29.42;23.70;;;16.80;99.90;;;;;;5036297;28;20276;-88
2023/05/23 02:54:20;;;;;;;27.02;23.15;;;16.80;99.90;;;;;;5033967;28;20181;-89
2023/05/23 02:56:46;;;;;;;28.92;23.10;;;16.80;99.90;;;;;;5034167;28;20218;-87
2023/05/23 02:59:13;;;;;;;28.27;24.15;;;16.80;99.90;;;;;;5035416;28;20197;-89
2023/05/23 03:01:39;;;;;;;25.67;22.88;;;16.80;99.90;;;;;;5035571;28;20170;-89
2023/05/23 03:04:05;;;;;;;28.10;23.13;;;16.80;99.90;;;;;;5034299;28;20185;-88
2023/05/23 03:06:32;;;;;;;25.55;22.52;;;16.80;99.90;;;;;;5035579;28;20206;-89
2023/05/23 03:08:59;;;;;;;25.95;23.15;;;16.80;99.90;;;;;;5035253;28;20197;-88
2023/05/23 03:11:25;;;;;;;28.42;24.05;;;16.80;99.90;;;;;;5034375;28;20254;-89
2023/05/23 03:13:51;;;;;;;27.77;24.75;;;16.80;99.90;;;;;;5033492;28;20246;-87
2023/05/23 03:16:16;;;;;;;27.48;23.98;;;16.80;99.90;;;;;;5033443;28;20284;-88
2023/05/23 03:18:42;;;;;;;32.13;25.83;;;16.80;99.90;;;;;;5033819;28;20179;-86
2023/05/23 03:21:08;;;;;;;29.65;26.30;;;16.90;99.90;;;;;;5033788;28;20186;-86
2023/05/23 03:23:35;;;;;;;30.75;25.83;;;16.80;99.90;;;;;;5033582;28;20186;-87
2023/05/23 03:26:02;;;;;;;33.78;27.15;;;16.80;99.90;;;;;;5033860;28;20197;-86
2023/05/23 03:28:30;;;;;;;36.80;26.70;;;16.60;99.90;;;;;;5033815;28;20174;-87
2023/05/23 03:30:57;;;;;;;34.13;27.73;;;16.60;99.90;;;;;;5033584;28;20518;-89
2023/05/23 03:33:23;;;;;;;41.17;28.77;;;16.50;99.90;;;;;;5033522;28;20170;-89
2023/05/23 03:35:50;;;;;;;37.42;27.98;;;16.50;99.90;;;;;;5034873;28;20197;-87
2023/05/23 03:38:16;;;;;;;36.95;28.02;;;16.30;99.90;;;;;;5033729;28;20225;-87
2023/05/23 03:40:41;;;;;;;33.95;26.95;;;16.30;99.90;;;;;;5034727;28;20252;-87
2023/05/23 03:43:08;;;;;;;33.03;25.05;;;16.20;99.90;;;;;;5033480;28;20566;-87
2023/05/23 03:45:34;;;;;;;29.23;23.50;;;16.10;99.90;;;;;;5033420;28;20182;-89
2023/05/23 03:48:00;;;;;;;24.27;21.38;;;16.00;99.90;;;;;;5033711;28;20185;-88
2023/05/23 03:50:27;;;;;;;26.85;21.02;;;16.00;99.90;;;;;;5035003;28;20174;-93
2023/05/23 03:52:53;;;;;;;24.67;19.40;;;15.80;99.90;;;;;;5033713;28;20240;-88
2023/05/23 03:55:23;;;;;;;26.38;20.05;;;15.60;99.90;;;;;;5034602;28;20163;-87
2023/05/23 03:57:54;;;;;;;24.08;19.52;;;15.40;99.90;;;;;;5033186;28;20216;-86
2023/05/23 04:00:20;;;;;;;35.67;19.20;;;15.30;99.90;;;;;;5032761;28;20182;-89
2023/05/23 04:02:46;;;;;;;26.55;19.70;;;15.30;99.90;;;;;;5034451;28;20181;-89
2023/05/23 04:05:12;;;;;;;20.20;18.10;;;15.20;99.90;;;;;;5034531;28;20171;-89
2023/05/23 04:07:39;;;;;;;24.05;17.30;;;15.10;99.90;;;;;;5033155;28;20972;-91
2023/05/23 04:10:06;;;;;;;22.27;16.50;;;15.10;99.90;;;;;;5034296;28;20197;-87
2023/05/23 04:12:33;;;;;;;19.52;16.20;;;15.20;99.90;;;;;;5032940;28;20179;-86
2023/05/23 04:14:59;;;;;;;20.58;16.48;;;15.20;99.90;;;;;;5032761;28;20238;-87
2023/05/23 04:17:24;;;;;;;20.35;15.38;;;15.20;99.90;;;;;;5032897;28;20711;-89
2023/05/23 04:19:51;;;;;;;19.63;15.05;;;15.20;99.90;;;;;;5032813;28;20566;-87
2023/05/23 04:22:17;;;;;;;20.50;15.68;;;15.20;99.90;;;;;;5033957;28;20162;-87
2023/05/23 04:24:43;;;;;;;20.35;15.35;;;15.10;99.90;;;;;;5032842;28;20786;-90
2023/05/23 04:27:09;;;;;;;20.42;15.45;;;15.10;99.90;;;;;;5034051;28;20178;-89
2023/05/23 04:29:38;;;;;;;18.92;14.60;;;15.20;99.90;;;;;;5032915;28;20179;-87
2023/05/23 04:32:05;;;;;;;21.48;15.15;;;15.20;99.90;;;;;;5033757;28;20217;-88
2023/05/23 04:34:36;;;;;;;21.30;14.80;;;15.20;99.90;;;;;;5032882;28;20265;-87
2023/05/23 04:37:02;;;;;;;24.98;14.23;;;15.20;99.90;;;;;;5032355;28;20199;-87
2023/05/23 04:39:29;;;;;;;18.30;14.30;;;15.20;99.90;;;;;;5033703;28;20179;-88
2023/05/23 04:41:56;;;;;;;16.88;13.40;;;15.20;99.90;;;;;;5032820;28;20272;-87
2023/05/23 04:44:29;;;;;;;16.98;13.80;;;15.20;99.90;;;;;;5034113;28;20262;-89
2023/05/23 04:46:55;;;;;;;17.88;13.57;;;15.30;99.90;;;;;;5032712;28;20175;-88
2023/05/23 04:49:23;;;;;;;16.90;13.27;;;15.30;99.90;;;;;;5036375;28;20170;-88
2023/05/23 04:51:49;;;;;;;14.95;13.35;;;15.30;99.90;;;;;;5037805;28;20625;-89
2023/05/23 04:54:14;;;;;;;16.65;12.88;;;15.20;99.90;;;;;;5037956;28;20171;-89
2023/05/23 04:56:40;;;;;;;19.48;13.57;;;15.20;99.90;;;;;;5036946;28;20202;-88
2023/05/23 04:59:07;;;;;;;15.52;12.80;;;15.10;99.90;;;;;;5036652;28;20183;-88
2023/05/23 05:01:33;;;;;;;15.95;13.00;;;15.20;99.90;;;;;;5036641;28;20529;-88
2023/05/23 05:03:59;;;;;;;16.67;12.85;;;15.20;99.90;;;;;;5037585;28;20270;-87
2023/05/23 05:06:26;;;;;;;14.98;12.50;;;15.10;99.90;;;;;;5036358;28;20189;-87
2023/05/23 05:08:52;;;;;;;15.77;12.48;;;15.20;99.90;;;;;;5037617;28;20269;-87
2023/05/23 05:11:18;;;;;;;15.77;12.77;;;15.30;99.90;;;;;;5036089;28;20266;-88
2023/05/23 05:13:44;;;;;;;16.83;13.07;;;15.40;99.90;;;;;;5036126;28;20269;-86
2023/05/23 05:16:10;;;;;;;14.10;12.60;;;15.50;99.90;;;;;;5035999;28;20194;-87
2023/05/23 05:18:38;;;;;;;16.77;12.55;;;15.50;99.90;;;;;;5037231;28;20182;-86
2023/05/23 05:21:03;;;;;;;18.38;12.60;;;15.50;99.90;;;;;;5035999;28;20171;-89
2023/05/23 05:23:30;;;;;;;14.23;12.30;;;15.60;99.90;;;;;;5037050;28;20261;-86
2023/05/23 05:25:56;;;;;;;15.50;12.73;;;15.70;99.90;;;;;;5036342;28;20178;-88
2023/05/23 05:28:22;;;;;;;16.33;12.68;;;15.70;99.90;;;;;;5036435;28;20518;-88
2023/05/23 05:30:53;;;;;;;13.05;11.35;;;15.70;99.90;;;;;;5037246;28;20179;-89
2023/05/23 05:33:22;;;;;;;16.70;11.70;;;15.60;99.90;;;;;;5036005;28;20182;-89
2023/05/23 05:35:48;;;;;;;15.25;12.93;;;15.60;99.90;;;;;;5036070;28;20497;-89
2023/05/23 05:38:13;;;;;;;17.00;12.65;;;15.50;99.90;;;;;;5036175;28;20263;-90
2023/05/23 05:40:41;;;;;;;16.00;12.68;;;15.50;99.90;;;;;;5041403;28;20523;-88
2023/05/23 05:43:07;;;;;;;15.15;13.40;;;15.40;99.90;;;;;;5057212;28;20177;-89
2023/05/23 05:45:32;;;;;;;16.35;13.05;;;15.40;99.90;;;;;;5051687;28;20174;-88
2023/05/23 05:47:58;;;;;;;17.67;12.98;;;15.40;99.90;;;;;;5036120;28;20609;-90
2023/05/23 05:50:25;;;;;;;18.77;13.57;;;15.30;99.90;;;;;;5037329;28;20259;-90
2023/05/23 05:52:51;;;;;;;17.80;13.13;;;15.30;99.90;;;;;;5016018;28;20183;-92
2023/05/23 05:55:16;;;;;;;21.52;15.05;;;15.40;99.90;;;;;;5017532;28;20172;-89
2023/05/23 05:57:42;;;;;;;19.38;13.10;;;15.30;99.90;;;;;;5017355;28;20246;-89
2023/05/23 06:00:14;;;;;;;16.75;14.52;;;15.30;99.90;;;;;;5032336;28;20179;-88
2023/05/23 06:02:43;;;;;;;18.10;13.82;;;15.20;99.90;;;;;;5035683;28;20225;-88
2023/05/23 06:05:11;;;;;;;17.33;14.50;;;15.20;99.90;;;;;;5035489;28;20609;-88
2023/05/23 06:07:39;;;;;;;15.35;13.43;;;15.20;99.90;;;;;;5036120;28;20186;-89
2023/05/23 06:10:07;;;;;;;18.73;14.07;;;15.30;99.90;;;;;;5035209;28;20605;-89
2023/05/23 06:12:34;;;;;;;18.33;13.30;;;15.30;99.90;;;;;;5034313;28;20183;-89
2023/05/23 06:15:03;;;;;;;19.40;13.88;;;15.30;99.90;;;;;;5035149;28;20226;-88
2023/05/23 06:17:29;;;;;;;18.52;13.80;;;15.30;99.90;;;;;;5038232;28;20258;-89
2023/05/23 06:19:57;;;;;;;17.48;13.43;;;15.30;99.90;;;;;;5055366;28;20237;-89
2023/05/23 06:22:23;;;;;;;17.30;14.18;;;15.20;99.90;;;;;;5052845;28;20166;-90
2023/05/23 06:24:48;;;;;;;16.83;12.85;;;15.10;99.90;;;;;;5035580;28;20521;-88
2023/05/23 06:27:14;;;;;;;15.43;13.32;;;15.10;99.90;;;;;;5034719;28;20621;-91
2023/05/23 06:29:40;;;;;;;17.63;14.63;;;15.10;99.90;;;;;;5036264;28;20170;-88
2023/05/23 06:32:06;;;;;;;19.85;13.35;;;15.10;99.90;;;;;;5036330;28;20167;-89
2023/05/23 06:34:31;;;;;;;21.30;14.23;;;15.10;99.90;;;;;;5035232;28;20680;-89
2023/05/23 06:36:57;;;;;;;18.05;13.05;;;15.10;99.90;;;;;;5036200;28;20209;-91
2023/05/23 06:39:23;;;;;;;18.52;13.60;;;15.10;99.90;;;;;;5035406;28;20229;-89
2023/05/23 06:41:49;;;;;;;18.00;14.25;;;15.10;99.90;;;;;;5037015;28;20202;-88
2023/05/23 06:44:14;;;;;;;17.60;12.80;;;15.10;99.90;;;;;;5033284;28;20191;-89
2023/05/23 06:46:45;;;;;;;17.30;12.73;;;15.10;99.90;;;;;;5035633;28;20221;-91
2023/05/23 06:49:11;;;;;;;20.02;13.00;;;15.20;99.90;;;;;;5034885;28;20240;-91
2023/05/23 06:51:37;;;;;;;17.92;13.50;;;15.20;99.90;;;;;;5034641;28;20601;-88
2023/05/23 06:54:02;;;;;;;19.27;14.05;;;15.20;99.90;;;;;;5047778;28;20182;-90
2023/05/23 06:56:28;;;;;;;20.88;13.05;;;15.20;99.90;;;;;;5055890;28;20233;-89
2023/05/23 06:58:54;;;;;;;15.90;12.50;;;15.10;99.90;;;;;;5054716;28;20181;-84
2023/05/23 07:01:26;;;;;;;19.45;12.52;;;15.00;99.90;;;;;;5053190;28;20225;-88
2023/05/23 07:03:51;;;;;;;22.17;12.98;;;15.00;99.90;;;;;;5054948;28;20581;-87
2023/05/23 07:06:17;;;;;;;14.60;11.90;;;15.00;99.90;;;;;;5055513;28;20193;-88
2023/05/23 07:08:43;;;;;;;17.40;12.48;;;15.00;99.90;;;;;;5054579;28;20563;-92
2023/05/23 07:11:11;;;;;;;15.23;11.77;;;15.00;99.90;;;;;;5053966;28;20247;-89
2023/05/23 07:13:37;;;;;;;17.33;11.57;;;15.00;99.90;;;;;;5055334;28;20173;-90
2023/05/23 07:16:03;;;;;;;15.35;10.88;;;15.10;99.90;;;;;;5054090;28;20177;-90
2023/05/23 07:18:29;;;;;;;15.60;10.90;;;15.10;99.90;;;;;;5054476;28;20182;-87
2023/05/23 07:20:56;;;;;;;14.95;10.55;;;15.10;99.90;;;;;;5054496;28;20600;-92
2023/05/23 07:23:23;;;;;;;13.75;10.15;;;15.10;99.90;;;;;;5054276;28;20638;-88
2023/05/23 07:25:49;;;;;;;14.93;10.55;;;15.20;99.90;;;;;;5054431;28;20178;-91
2023/05/23 07:28:15;;;;;;;12.60;9.95;;;15.20;99.90;;;;;;5055328;28;20252;-91
2023/05/23 07:30:41;;;;;;;12.70;10.45;;;15.10;99.90;;;;;;5053944;28;20637;-85
2023/05/23 07:33:07;;;;;;;11.90;9.73;;;15.10;99.90;;;;;;5035522;28;20190;-89
2023/05/23 07:35:33;;;;;;;10.63;8.77;;;15.20;99.90;;;;;;5034385;28;20228;-89
2023/05/23 07:37:58;;;;;;;11.13;8.85;;;15.20;99.90;;;;;;5035264;28;20206;-91
2023/05/23 07:40:24;;;;;;;12.90;9.02;;;15.20;99.90;;;;;;5035407;28;20674;-89
2023/05/23 07:42:52;;;;;;;9.68;8.35;;;15.20;99.90;;;;;;5035180;28;20163;-90
2023/05/23 07:45:18;;;;;;;11.35;8.63;;;15.20;99.90;;;;;;5034215;28;20621;-88
2023/05/23 07:47:44;;;;;;;12.05;8.27;;;15.20;99.90;;;;;;5034132;28;20186;-93
2023/05/23 07:50:10;;;;;;;8.90;7.50;;;15.30;99.90;;;;;;5033863;28;20178;-91
2023/05/23 07:52:36;;;;;;;9.75;7.55;;;15.30;99.90;;;;;;5033649;28;20170;-89
2023/05/23 07:55:01;;;;;;;7.97;6.75;;;15.30;99.90;;;;;;5033555;28;20182;-90
2023/05/23 07:57:27;;;;;;;8.27;6.70;;;15.30;99.90;;;;;;5034278;28;20214;-93
2023/05/23 07:59:53;;;;;;;9.80;6.25;;;15.20;99.90;;;;;;5034509;28;20174;-91
2023/05/23 08:02:19;;;;;;;7.43;6.20;;;15.20;99.90;;;;;;5033276;28;20194;-91
2023/05/23 08:04:47;;;;;;;7.65;6.00;;;15.20;99.90;;;;;;5033420;28;20170;-91
2023/05/23 08:07:13;;;;;;;6.47;5.50;;;15.10;99.90;;;;;;5034417;28;20489;-90
2023/05/23 08:09:39;;;;;;;5.65;4.78;;;15.20;99.90;;;;;;5033662;28;20186;-91
2023/05/23 08:12:06;;;;;;;5.32;4.82;;;15.20;99.90;;;;;;5033629;28;20205;-91
2023/05/23 08:14:32;;;;;;;5.18;4.55;;;15.20;99.90;;;;;;5033885;28;20222;-90
2023/05/23 08:16:58;;;;;;;5.78;4.50;;;15.20;99.90;;;;;;5033612;28;20654;-89
2023/05/23 08:19:24;;;;;;;4.45;4.05;;;15.20;99.90;;;;;;5034662;28;20260;-89
2023/05/23 08:21:52;;;;;;;4.38;3.97;;;15.20;99.90;;;;;;5033665;28;20213;-90
2023/05/23 08:24:19;;;;;;;3.97;3.42;;;15.20;99.90;;;;;;5037073;28;20239;-89
2023/05/23 08:26:46;;;;;;;3.63;3.33;;;15.10;99.90;;;;;;5037711;28;20185;-90
2023/05/23 08:29:12;;;;;;;3.65;3.35;;;15.10;99.90;;;;;;5039210;28;20178;-89
2023/05/23 08:31:38;;;;;;;4.90;3.63;;;15.10;99.90;;;;;;5037179;28;20625;-90
2023/05/23 08:34:04;;;;;;;4.35;3.33;;;15.10;99.90;;;;;;5037634;28;20217;-88
2023/05/23 08:36:33;;;;;;;5.70;3.60;;;15.20;99.90;;;;;;5037647;28;20660;-88
2023/05/23 08:38:59;;;;;;;4.57;3.92;;;15.20;99.90;;;;;;5037778;28;20265;-92
2023/05/23 08:41:26;;;;;;;5.60;3.83;;;15.20;99.90;;;;;;5039408;28;20224;-95
2023/05/23 08:43:52;;;;;;;5.40;3.97;;;15.10;99.90;;;;;;5037895;28;20708;-87
2023/05/23 08:46:18;;;;;;;3.80;3.50;;;15.10;99.90;;;;;;5037437;28;20186;-93
2023/05/23 08:48:49;;;;;;;4.10;3.20;;;15.10;99.90;;;;;;5037453;28;20179;-91
2023/05/23 08:51:17;;;;;;;4.78;3.40;;;15.10;99.90;;;;;;5037411;28;20185;-91
2023/05/23 08:53:47;;;;;;;4.38;3.97;;;15.10;99.90;;;;;;5037317;28;20621;-91
2023/05/23 08:56:13;;;;;;;4.90;4.50;;;15.10;99.90;;;;;;5036995;28;20270;-93
2023/05/23 08:58:41;;;;;;;5.70;4.38;;;15.10;99.90;;;;;;5037103;28;20517;-91
2023/05/23 09:01:10;;;;;;;5.82;5.20;;;15.00;99.90;;;;;;5038122;28;20174;-92
2023/05/23 09:03:36;;;;;;;5.90;4.97;;;14.90;99.90;;;;;;5038368;28;20198;-89
2023/05/23 09:06:05;;;;;;;12.38;5.13;;;14.90;99.90;;;;;;5037869;28;20175;-89
2023/05/23 09:08:31;;;;;;;6.88;5.75;;;14.90;99.90;;;;;;5037997;28;20174;-89
2023/05/23 09:11:01;;;;;;;7.03;5.60;;;14.80;99.90;;;;;;5036738;28;20644;-86
2023/05/23 09:13:33;;;;;;;7.15;5.90;;;14.90;99.90;;;;;;5038109;28;20165;-88
2023/05/23 09:16:03;;;;;;;7.03;5.70;;;14.80;99.90;;;;;;5037921;28;20199;-89
2023/05/23 09:18:40;;;;;;;6.80;6.13;;;14.80;99.90;;;;;;5036740;28;20191;-88
2023/05/23 09:21:08;;;;;;;7.00;6.10;;;14.70;99.90;;;;;;5037898;28;20244;-88
2023/05/23 09:23:35;;;;;;;7.32;6.53;;;14.70;99.90;;;;;;5037352;28;20159;-88
2023/05/23 09:26:06;;;;;;;8.43;6.90;;;14.70;99.90;;;;;;5037493;28;20262;-86
2023/05/23 09:28:34;;;;;;;7.72;7.00;;;14.60;99.90;;;;;;5037346;28;20162;-90
2023/05/23 09:31:04;;;;;;;7.72;6.93;;;14.60;99.90;;;;;;5035934;28;20609;-87
2023/05/23 09:33:47;;;;;;;8.13;7.32;;;14.60;99.90;;;;;;5035380;28;20186;-88
2023/05/23 09:36:14;;;;;;;9.35;7.72;;;14.60;99.90;;;;;;5037317;28;20171;-91
2023/05/23 09:38:41;;;;;;;8.43;7.43;;;14.60;99.90;;;;;;5037088;28;20237;-88
2023/05/23 09:41:07;;;;;;;8.57;7.60;;;14.60;99.90;;;;;;5035482;28;20174;-85
2023/05/23 09:43:34;;;;;;;8.40;7.28;;;14.60;99.90;;;;;;5036018;28;20249;-85
2023/05/23 09:46:06;;;;;;;7.55;6.80;;;14.60;99.90;;;;;;5019740;28;20175;-87
2023/05/23 09:48:32;;;;;;;9.90;6.53;;;14.60;99.90;;;;;;5015745;28;20183;-86
2023/05/23 09:50:58;;;;;;;9.30;6.35;;;14.50;99.90;;;;;;5016929;28;20183;-86
2023/05/23 09:53:24;;;;;;;7.05;5.32;;;14.50;99.90;;;;;;5015581;28;20184;-86
2023/05/23 09:55:55;;;;;;;7.55;5.30;;;14.40;99.90;;;;;;5016884;28;20503;-87
2023/05/23 09:58:22;;;;;;;7.57;5.82;;;14.50;99.90;;;;;;5015583;28;20218;-88
2023/05/23 10:00:55;;;;;;;5.72;4.97;;;14.50;99.90;;;;;;5016770;28;20217;-87
2023/05/23 10:03:35;;;;;;;7.55;5.20;;;14.50;99.90;;;;;;5033774;28;20194;-90
2023/05/23 10:06:07;;;;;;;6.10;5.00;;;14.50;99.90;;;;;;5035363;28;20170;-89
2023/05/23 10:08:58;;;;;;;5.70;5.13;;;14.50;99.90;;;;;;5035292;28;20293;-87
2023/05/23 10:11:33;;;;;;;8.25;5.45;;;14.50;99.90;;;;;;5034491;28;20191;-88
2023/05/23 10:14:08;;;;;;;5.72;5.13;;;14.60;99.90;;;;;;5035523;28;20562;-86
2023/05/23 10:16:54;;;;;;;7.70;6.22;;;14.50;99.90;;;;;;5034311;28;20205;-85
2023/05/23 10:19:26;;;;;;;6.10;5.47;;;14.50;99.90;;;;;;5034359;28;20223;-86
2023/05/23 10:22:01;;;;;;;6.63;5.63;;;14.50;99.90;;;;;;5035788;28;20165;-86
2023/05/23 10:24:27;;;;;;;9.18;5.65;;;14.40;99.90;;;;;;5034451;28;20282;-84
2023/05/23 10:26:54;;;;;;;10.88;7.57;;;14.40;99.90;;;;;;5034279;28;20182;-85
2023/05/23 10:29:21;;;;;;;10.75;6.65;;;14.30;99.90;;;;;;5033815;28;20896;-86
2023/05/23 10:31:49;;;;;;;12.82;8.52;;;14.30;99.90;;;;;;5035209;28;20186;-87
2023/05/23 10:34:23;;;;;;;13.98;8.23;;;14.20;99.90;;;;;;5035522;28;20186;-84
2023/05/23 10:36:58;;;;;;;13.38;7.70;;;14.10;99.90;;;;;;5035604;28;20606;-86
2023/05/23 10:39:48;;;;;;;13.32;7.60;;;14.10;99.90;;;;;;5034462;28;20575;-85
2023/05/23 10:42:33;;;;;;;12.38;7.43;;;14.00;99.90;;;;;;5034152;28;20189;-86
2023/05/23 10:45:23;;;;;;;12.57;7.82;;;13.90;99.90;;;;;;5033423;28;20187;-85
2023/05/23 10:47:51;;;;;;;11.95;7.75;;;13.90;99.90;;;;;;5033968;28;20502;-86
2023/05/23 10:50:35;;;;;;;11.77;7.22;;;14.00;99.90;;;;;;5035053;28;20189;-85
2023/05/23 10:53:05;;;;;;;10.85;7.57;;;14.00;99.90;;;;;;5034110;28;20178;-90
2023/05/23 10:55:36;;;;;;;10.25;6.95;;;13.90;99.90;;;;;;5034213;28;20175;-84
2023/05/23 10:58:22;;;;;;;12.90;7.03;;;13.90;99.90;;;;;;5033973;28;20253;-86
2023/05/23 11:00:54;;;;;;;9.90;7.78;;;13.90;99.90;;;;;;5034353;28;20683;-86
2023/05/23 11:03:46;;;;;;;13.25;7.95;;;13.80;99.90;;;;;;5032891;28;20182;-84
2023/05/23 11:06:37;;;;;;;11.18;7.15;;;13.80;99.90;;;;;;5026931;28;20182;-84
2023/05/23 11:09:17;;;;;;;10.50;6.55;;;13.60;99.90;;;;;;5034954;28;20602;-89
2023/05/23 11:11:58;;;;;;;13.32;6.95;;;13.60;99.90;;;;;;5035196;28;20162;-88
2023/05/23 11:14:33;;;;;;;14.88;7.10;;;13.60;99.90;;;;;;5034607;28;20225;-87
2023/05/23 11:17:28;;;;;;;13.73;7.25;;;13.60;99.90;;;;;;5033495;28;20206;-85
2023/05/23 11:20:05;;;;;;;14.10;8.57;;;13.60;99.90;;;;;;5033816;28;20625;-87
2023/05/23 11:22:34;;;;;;;10.65;6.78;;;13.60;99.90;;;;;;5032680;28;20182;-87
2023/05/23 11:25:06;;;;;;;13.02;7.38;;;13.60;99.90;;;;;;5038833;28;20187;-87
2023/05/23 11:27:37;;;;;;;10.10;6.28;;;13.60;99.90;;;;;;5024627;28;20179;-86
2023/05/23 11:30:23;;;;;;;10.60;6.30;;;13.60;99.90;;;;;;5033246;28;20174;-86
2023/05/23 11:32:51;;;;;;;9.77;6.30;;;13.60;99.90;;;;;;5033978;28;20187;-86
2023/05/23 11:35:17;;;;;;;11.25;5.93;;;13.50;99.90;;;;;;5033668;28;20584;-85
2023/05/23 11:37:43;;;;;;;12.73;6.10;;;13.50;99.90;;;;;;5034384;28;20245;-84
2023/05/23 11:40:35;;;;;;;11.23;6.38;;;13.50;99.90;;;;;;5034560;28;20175;-87
2023/05/23 11:43:06;;;;;;;13.20;5.75;;;13.40;99.90;;;;;;5033718;28;20178;-90
2023/05/23 11:45:36;;;;;;;9.50;4.97;;;13.40;99.90;;;;;;5033218;28;20173;-88
2023/05/23 11:48:10;;;;;;;11.30;4.80;;;13.30;99.90;;;;;;5014718;28;20171;-85
2023/05/23 11:50:53;;;;;;;13.82;5.88;;;13.30;99.90;;;;;;5014592;28;20554;-86
2023/05/23 11:53:23;;;;;;;7.80;4.68;;;13.20;99.90;;;;;;5013291;28;20178;-88
2023/05/23 11:55:56;;;;;;;12.13;5.38;;;13.10;99.90;;;;;;5014961;28;20167;-86
2023/05/23 11:58:26;;;;;;;12.25;4.40;;;13.00;99.90;;;;;;5013328;28;20219;-86
2023/05/23 12:00:59;;;;;;;10.52;4.47;;;13.00;99.90;;;;;;5014477;28;20167;-88
2023/05/23 12:03:27;;;;;;;7.45;3.88;;;12.90;99.90;;;;;;5014440;28;20508;-89
2023/05/23 12:05:54;;;;;;;8.40;4.10;;;12.80;99.90;;;;;;5015142;28;20599;-87
2023/05/23 12:08:20;;;;;;;10.57;3.92;;;12.80;99.90;;;;;;5013932;28;20187;-91
2023/05/23 12:10:57;;;;;;;9.20;4.57;;;12.80;99.90;;;;;;5013948;28;20175;-90
2023/05/23 12:13:28;;;;;;;8.23;4.30;;;12.70;99.90;;;;;;5014805;28;20171;-86
2023/05/23 12:15:59;;;;;;;12.18;4.22;;;12.80;99.90;;;;;;5017727;28;20226;-88
2023/05/23 12:18:28;;;;;;;13.65;5.47;;;12.70;99.90;;;;;;5033978;28;20198;-88
2023/05/23 12:20:54;;;;;;;13.27;4.18;;;12.70;99.90;;;;;;5032865;28;20178;-95
2023/05/23 12:23:25;;;;;;;11.55;4.28;;;12.60;99.90;;;;;;5033193;28;20671;-92
2023/05/23 12:25:52;;;;;;;10.60;4.20;;;12.60;99.90;;;;;;5035079;28;20173;-91
2023/05/23 12:28:19;;;;;;;9.98;3.85;;;12.60;99.90;;;;;;5033638;28;20277;-86
2023/05/23 12:30:45;;;;;;;13.93;5.20;;;12.70;99.90;;;;;;5034140;28;20171;-92
2023/05/23 12:33:12;;;;;;;16.88;5.22;;;12.60;99.90;;;;;;5034416;28;20250;-86
2023/05/23 12:35:43;;;;;;;11.27;4.40;;;12.60;99.90;;;;;;5032340;28;20186;-91
2023/05/23 12:38:13;;;;;;;10.35;4.10;;;12.60;99.90;;;;;;5033292;28;20230;-88
2023/05/23 12:40:39;;;;;;;14.77;4.63;;;12.60;99.90;;;;;;5032056;28;20190;-95